createdAt,value
2023-03-05T00:00:51.385Z,67.61
2023-03-05T00:01:53.204Z,62.76
2023-03-05T00:02:55.072Z,67.98
2023-03-05T00:03:56.875Z,63.57
2023-03-05T00:04:58.635Z,61.49
2023-03-05T00:06:00.491Z,65.85
2023-03-05T00:07:02.305Z,68.05
2023-03-05T00:08:04.116Z,64.57
2023-03-05T00:09:05.917Z,65.45
2023-03-05T00:10:08.035Z,73.05
2023-03-05T00:11:09.887Z,76.18
2023-03-05T00:12:11.706Z,67.75
2023-03-05T00:13:13.498Z,73.05
2023-03-05T00:14:15.310Z,70.07
2023-03-05T00:15:17.143Z,69.54
2023-03-05T00:16:19.026Z,71.49
2023-03-05T00:17:20.782Z,66.56
2023-03-05T00:18:22.592Z,69.63
2023-03-05T00:19:24.418Z,69.07
2023-03-05T00:20:26.214Z,68.81
2023-03-05T00:21:28.077Z,67.59
2023-03-05T00:22:29.877Z,68.99
2023-03-05T00:23:31.688Z,70.79
2023-03-05T00:24:33.507Z,69.20
2023-03-05T00:25:35.315Z,67.22
2023-03-05T00:26:37.146Z,72.69
2023-03-05T00:27:38.950Z,73.19
2023-03-05T00:28:40.767Z,70.69
2023-03-05T00:29:42.594Z,72.76
2023-03-05T00:30:44.400Z,72.13
2023-03-05T00:31:46.256Z,70.75
2023-03-05T00:32:48.065Z,81.82
2023-03-05T00:33:49.872Z,80.25
2023-03-05T00:34:51.676Z,74.41
2023-03-05T00:35:53.504Z,76.67
2023-03-05T00:36:55.338Z,79.17
2023-03-05T00:37:57.146Z,72.58
2023-03-05T00:38:58.960Z,72.86
2023-03-05T00:40:00.811Z,75.06
2023-03-05T00:41:02.659Z,74.99
2023-03-05T00:42:04.522Z,70.32
2023-03-05T00:43:06.331Z,69.90
2023-03-05T00:44:08.142Z,68.91
2023-03-05T00:45:09.953Z,69.59
2023-03-05T00:46:11.993Z,71.69
2023-03-05T00:47:13.924Z,68.48
2023-03-05T00:48:15.723Z,65.91
2023-03-05T00:49:17.540Z,70.35
2023-03-05T00:50:19.357Z,67.75
2023-03-05T00:51:21.169Z,69.29
2023-03-05T00:52:23.026Z,76.99
2023-03-05T00:53:24.857Z,76.71
2023-03-05T00:54:26.648Z,70.71
2023-03-05T00:55:28.467Z,70.71
2023-03-05T00:56:30.273Z,67.97
2023-03-05T00:57:32.121Z,68.34
2023-03-05T00:58:33.931Z,68.66
2023-03-05T00:59:35.760Z,71.85
2023-03-05T01:00:37.678Z,69.89
2023-03-05T01:01:39.505Z,68.85
2023-03-05T01:02:41.339Z,69.63
2023-03-05T01:03:43.164Z,66.90
2023-03-05T01:04:44.959Z,73.99
2023-03-05T01:05:46.767Z,72.14
2023-03-05T01:06:48.664Z,70.21
2023-03-05T01:07:50.525Z,69.47
2023-03-05T01:08:52.332Z,70.69
2023-03-05T01:09:54.137Z,68.10
2023-03-05T01:10:55.931Z,74.81
2023-03-05T01:11:57.729Z,77.65
2023-03-05T01:12:59.597Z,76.89
2023-03-05T01:14:01.407Z,75.98
2023-03-05T01:15:03.206Z,76.14
2023-03-05T01:16:05.174Z,77.60
2023-03-05T01:17:06.923Z,79.67
2023-03-05T01:18:08.786Z,77.10
2023-03-05T01:19:10.497Z,71.75
2023-03-05T01:20:12.693Z,68.67
2023-03-05T01:21:14.420Z,66.66
2023-03-05T01:22:16.197Z,67.56
2023-03-05T01:23:18.052Z,67.73
2023-03-05T01:24:19.836Z,67.80
2023-03-05T01:25:21.651Z,67.02
2023-03-05T01:26:23.553Z,68.61
2023-03-05T01:27:25.341Z,66.82
2023-03-05T01:28:27.259Z,65.99
2023-03-05T01:29:29.013Z,65.40
2023-03-05T01:30:30.820Z,68.51
2023-03-05T01:31:32.648Z,72.21
2023-03-05T01:32:35.495Z,69.53
2023-03-05T01:33:37.604Z,72.87
2023-03-05T01:34:39.425Z,65.09
2023-03-05T01:35:41.253Z,67.36
2023-03-05T01:36:43.032Z,68.15
2023-03-05T01:37:44.851Z,66.85
2023-03-05T01:38:46.740Z,67.87
2023-03-05T01:39:48.551Z,71.88
2023-03-05T01:40:50.343Z,71.04
2023-03-05T01:41:54.103Z,73.37
2023-03-05T01:42:55.765Z,69.68
2023-03-05T01:43:57.634Z,68.47
2023-03-05T01:44:59.344Z,66.12
2023-03-05T01:46:01.244Z,66.91
2023-03-05T01:47:03.043Z,66.27
2023-03-05T01:48:04.857Z,65.25
2023-03-05T01:49:06.709Z,67.68
2023-03-05T01:50:09.009Z,69.98
2023-03-05T01:51:10.923Z,68.17
2023-03-05T01:52:12.729Z,71.20
2023-03-05T01:53:14.526Z,67.87
2023-03-05T01:54:16.379Z,71.44
2023-03-05T01:55:18.181Z,67.63
2023-03-05T01:56:20.305Z,72.81
2023-03-05T01:57:22.194Z,63.41
2023-03-05T01:58:24.010Z,71.52
2023-03-05T01:59:25.871Z,68.85
2023-03-05T02:00:27.673Z,67.31
2023-03-05T02:01:29.532Z,66.66
2023-03-05T02:02:31.372Z,63.72
2023-03-05T02:03:33.207Z,64.05
2023-03-05T02:04:35.152Z,62.78
2023-03-05T02:05:36.955Z,65.45
2023-03-05T02:06:38.873Z,68.13
2023-03-05T02:07:40.681Z,62.63
2023-03-05T02:08:42.474Z,66.78
2023-03-05T02:09:44.319Z,67.41
2023-03-05T02:10:46.116Z,69.02
2023-03-05T02:11:47.927Z,62.11
2023-03-05T02:12:49.722Z,65.44
2023-03-05T02:13:51.525Z,64.63
2023-03-05T02:14:53.365Z,64.98
2023-03-05T02:15:55.180Z,64.83
2023-03-05T02:16:57.015Z,66.64
2023-03-05T02:17:58.789Z,68.09
2023-03-05T02:19:00.587Z,69.45
2023-03-05T02:20:02.455Z,69.99
2023-03-05T02:21:04.236Z,65.70
2023-03-05T02:22:06.038Z,70.20
2023-03-05T02:23:07.843Z,65.69
2023-03-05T02:24:09.636Z,60.41
2023-03-05T02:25:11.498Z,70.77
2023-03-05T02:26:14.322Z,69.14
2023-03-05T02:27:16.112Z,64.29
2023-03-05T02:28:17.923Z,66.67
2023-03-05T02:29:19.713Z,68.45
2023-03-05T02:30:21.572Z,68.12
2023-03-05T02:31:23.537Z,70.79
2023-03-05T02:32:25.365Z,70.66
2023-03-05T02:33:27.183Z,65.85
2023-03-05T02:34:28.998Z,63.54
2023-03-05T02:35:30.834Z,65.96
2023-03-05T02:36:32.645Z,65.21
2023-03-05T02:37:34.427Z,66.95
2023-03-05T02:38:36.241Z,68.75
2023-03-05T02:39:38.052Z,70.41
2023-03-05T02:40:39.888Z,68.09
2023-03-05T02:41:41.686Z,65.54
2023-03-05T02:42:43.495Z,66.99
2023-03-05T02:43:45.302Z,69.93
2023-03-05T02:44:47.109Z,65.78
2023-03-05T02:45:49.274Z,67.04
2023-03-05T02:46:51.216Z,70.71
2023-03-05T02:47:53.041Z,73.26
2023-03-05T02:48:54.840Z,66.01
2023-03-05T02:49:56.650Z,67.61
2023-03-05T02:50:58.601Z,70.42
2023-03-05T02:52:00.404Z,65.67
2023-03-05T02:53:02.201Z,65.39
2023-03-05T02:54:04.005Z,69.34
2023-03-05T02:55:05.809Z,68.26
2023-03-05T02:56:07.962Z,70.45
2023-03-05T02:57:09.762Z,67.41
2023-03-05T02:58:11.562Z,70.53
2023-03-05T02:59:13.372Z,71.02
2023-03-05T03:00:15.564Z,68.92
2023-03-05T03:01:17.449Z,65.61
2023-03-05T03:02:19.252Z,66.77
2023-03-05T03:03:21.163Z,70.74
2023-03-05T03:04:23.066Z,70.47
2023-03-05T03:05:24.866Z,66.79
2023-03-05T03:06:26.725Z,69.38
2023-03-05T03:07:28.542Z,67.34
2023-03-05T03:08:30.339Z,69.27
2023-03-05T03:09:32.134Z,69.11
2023-03-05T03:10:33.953Z,65.73
2023-03-05T03:11:35.818Z,69.14
2023-03-05T03:12:37.612Z,63.89
2023-03-05T03:13:39.413Z,66.69
2023-03-05T03:14:41.267Z,70.69
2023-03-05T03:15:43.218Z,66.39
2023-03-05T03:16:45.278Z,63.90
2023-03-05T03:17:47.070Z,59.69
2023-03-05T03:18:49.068Z,61.78
2023-03-05T03:19:50.975Z,60.95
2023-03-05T03:20:52.773Z,58.96
2023-03-05T03:21:54.622Z,61.10
2023-03-05T03:22:56.437Z,60.74
2023-03-05T03:23:58.236Z,64.84
2023-03-05T03:25:00.042Z,63.92
2023-03-05T03:26:01.954Z,64.85
2023-03-05T03:27:03.830Z,59.04
2023-03-05T03:28:05.621Z,59.57
2023-03-05T03:29:07.432Z,54.18
2023-03-05T03:30:09.340Z,56.49
2023-03-05T03:31:11.173Z,56.85
2023-03-05T03:32:13.057Z,56.08
2023-03-05T03:33:14.824Z,53.21
2023-03-05T03:34:16.650Z,57.77
2023-03-05T03:35:18.481Z,54.43
2023-03-05T03:36:20.264Z,59.95
2023-03-05T03:37:22.120Z,53.65
2023-03-05T03:38:23.914Z,50.35
2023-03-05T03:39:25.732Z,57.51
2023-03-05T03:40:27.540Z,49.41
2023-03-05T03:41:29.335Z,48.77
2023-03-05T03:42:31.189Z,48.79
2023-03-05T03:43:32.994Z,49.63
2023-03-05T03:44:34.860Z,46.75
2023-03-05T03:45:36.642Z,48.86
2023-03-05T03:46:38.447Z,47.55
2023-03-05T03:47:40.292Z,49.13
2023-03-05T03:48:42.106Z,49.37
2023-03-05T03:49:43.930Z,48.63
2023-03-05T03:50:45.737Z,48.28
2023-03-05T03:51:47.542Z,48.76
2023-03-05T03:52:49.386Z,51.77
2023-03-05T03:53:51.195Z,52.85
2023-03-05T03:54:53.021Z,55.41
2023-03-05T03:55:54.817Z,56.78
2023-03-05T03:56:56.630Z,57.88
2023-03-05T03:57:58.475Z,52.17
2023-03-05T03:59:00.298Z,55.11
2023-03-05T04:00:02.136Z,58.13
2023-03-05T04:01:03.946Z,55.79
2023-03-05T04:02:05.740Z,54.51
2023-03-05T04:03:07.611Z,57.73
2023-03-05T04:04:09.466Z,59.52
2023-03-05T04:05:11.525Z,61.96
2023-03-05T04:06:13.570Z,61.36
2023-03-05T04:07:15.359Z,68.97
2023-03-05T04:08:17.217Z,83.77
2023-03-05T04:09:19.030Z,94.57
2023-03-05T04:10:20.839Z,91.60
2023-03-05T04:11:22.650Z,85.86
2023-03-05T04:12:24.445Z,92.15
2023-03-05T04:13:26.298Z,97.24
2023-03-05T04:14:28.090Z,96.19
2023-03-05T04:15:29.925Z,101.83
2023-03-05T04:16:31.729Z,123.26
2023-03-05T04:17:33.532Z,122.27
2023-03-05T04:18:35.411Z,129.37
2023-03-05T04:19:37.235Z,109.27
2023-03-05T04:20:39.052Z,91.87
2023-03-05T04:21:40.862Z,85.36
2023-03-05T04:22:42.661Z,104.13
2023-03-05T04:23:44.513Z,118.37
2023-03-05T04:24:46.323Z,97.37
2023-03-05T04:25:48.144Z,85.07
2023-03-05T04:26:49.934Z,74.45
2023-03-05T04:27:51.738Z,76.56
2023-03-05T04:28:53.533Z,70.19
2023-03-05T04:29:55.348Z,66.11
2023-03-05T04:30:57.188Z,76.79
2023-03-05T04:31:59.042Z,88.29
2023-03-05T04:33:00.872Z,99.67
2023-03-05T04:34:02.749Z,113.06
2023-03-05T04:35:04.562Z,112.21
2023-03-05T04:36:06.470Z,112.47
2023-03-05T04:37:08.260Z,100.04
2023-03-05T04:38:10.089Z,90.83
2023-03-05T04:39:11.938Z,96.75
2023-03-05T04:40:14.043Z,77.21
2023-03-05T04:41:15.843Z,87.16
2023-03-05T04:42:17.668Z,81.17
2023-03-05T04:43:19.489Z,90.25
2023-03-05T04:44:21.321Z,87.33
2023-03-05T04:45:23.116Z,85.74
2023-03-05T04:46:25.014Z,96.35
2023-03-05T04:47:26.847Z,77.81
2023-03-05T04:48:28.648Z,61.13
2023-03-05T04:49:30.495Z,71.90
2023-03-05T04:50:32.303Z,67.99
2023-03-05T04:51:34.124Z,71.46
2023-03-05T04:52:35.921Z,74.10
2023-03-05T04:53:37.725Z,81.00
2023-03-05T04:54:39.581Z,72.44
2023-03-05T04:55:41.392Z,80.90
2023-03-05T04:56:43.198Z,86.44
2023-03-05T04:57:45.004Z,80.27
2023-03-05T04:58:46.815Z,71.69
2023-03-05T04:59:48.671Z,67.84
2023-03-05T05:00:50.512Z,64.11
2023-03-05T05:01:52.316Z,67.86
2023-03-05T05:02:54.158Z,79.11
2023-03-05T05:03:56.016Z,90.32
2023-03-05T05:04:57.889Z,81.35
2023-03-05T05:05:59.689Z,81.84
2023-03-05T05:07:01.492Z,106.65
2023-03-05T05:08:03.305Z,102.59
2023-03-05T05:09:05.122Z,99.28
2023-03-05T05:10:07.201Z,114.65
2023-03-05T05:11:09.014Z,101.45
2023-03-05T05:12:10.828Z,117.83
2023-03-05T05:13:12.644Z,155.27
2023-03-05T05:14:14.436Z,159.80
2023-03-05T05:15:16.593Z,119.08
2023-03-05T05:16:18.410Z,106.89
2023-03-05T05:17:20.197Z,104.54
2023-03-05T05:18:22.008Z,94.65
2023-03-05T05:19:23.827Z,91.44
2023-03-05T05:20:25.678Z,88.45
2023-03-05T05:21:27.627Z,88.01
2023-03-05T05:22:29.400Z,80.27
2023-03-05T05:23:31.201Z,66.68
2023-03-05T05:24:33.016Z,59.74
2023-03-05T05:25:34.882Z,60.05
2023-03-05T05:26:36.818Z,56.75
2023-03-05T05:27:38.625Z,62.01
2023-03-05T05:28:40.436Z,61.93
2023-03-05T05:29:42.270Z,53.77
2023-03-05T05:30:44.288Z,50.92
2023-03-05T05:31:46.145Z,53.68
2023-03-05T05:32:47.911Z,46.54
2023-03-05T05:33:50.066Z,43.57
2023-03-05T05:34:51.921Z,44.65
2023-03-05T05:35:53.840Z,42.79
2023-03-05T05:36:55.709Z,40.02
2023-03-05T05:37:57.497Z,38.75
2023-03-05T05:38:59.307Z,39.35
2023-03-05T05:40:01.123Z,37.39
2023-03-05T05:41:02.987Z,38.24
2023-03-05T05:42:04.800Z,36.33
2023-03-05T05:43:06.593Z,35.55
2023-03-05T05:44:08.448Z,38.14
2023-03-05T05:45:10.314Z,38.45
2023-03-05T05:46:12.338Z,38.01
2023-03-05T05:47:14.220Z,37.29
2023-03-05T05:48:16.029Z,36.68
2023-03-05T05:49:17.816Z,40.91
2023-03-05T05:50:19.623Z,35.91
2023-03-05T05:51:21.474Z,37.37
2023-03-05T05:52:23.276Z,36.99
2023-03-05T05:53:25.087Z,37.62
2023-03-05T05:54:26.878Z,35.99
2023-03-05T05:55:28.701Z,34.14
2023-03-05T05:56:30.544Z,34.26
2023-03-05T05:57:32.348Z,38.23
2023-03-05T05:58:34.143Z,34.69
2023-03-05T05:59:36.001Z,38.97
2023-03-05T06:00:37.786Z,34.56
2023-03-05T06:01:39.689Z,36.37
2023-03-05T06:02:41.525Z,37.06
2023-03-05T06:03:43.341Z,33.95
2023-03-05T06:04:45.150Z,33.15
2023-03-05T06:05:46.961Z,37.46
2023-03-05T06:06:49.007Z,34.69
2023-03-05T06:07:50.802Z,34.78
2023-03-05T06:08:52.612Z,34.71
2023-03-05T06:09:54.508Z,35.00
2023-03-05T06:10:56.292Z,31.96
2023-03-05T06:11:58.162Z,31.01
2023-03-05T06:12:59.950Z,35.47
2023-03-05T06:14:01.761Z,33.99
2023-03-05T06:15:04.778Z,34.46
2023-03-05T06:16:06.927Z,35.25
2023-03-05T06:17:11.116Z,32.10
2023-03-05T06:18:12.490Z,30.96
2023-03-05T06:19:14.297Z,33.69
2023-03-05T06:20:16.171Z,32.11
2023-03-05T06:21:17.985Z,32.25
2023-03-05T06:22:19.827Z,30.99
2023-03-05T06:23:21.632Z,36.57
2023-03-05T06:24:23.453Z,30.13
2023-03-05T06:25:25.258Z,33.88
2023-03-05T06:26:27.162Z,31.73
2023-03-05T06:27:29.013Z,32.77
2023-03-05T06:28:30.826Z,30.03
2023-03-05T06:29:32.683Z,28.73
2023-03-05T06:30:34.525Z,32.39
2023-03-05T06:31:37.396Z,32.55
2023-03-05T06:32:39.463Z,28.91
2023-03-05T06:33:41.301Z,30.29
2023-03-05T06:34:43.082Z,28.34
2023-03-05T06:35:44.892Z,28.04
2023-03-05T06:36:46.700Z,29.61
2023-03-05T06:37:48.553Z,32.23
2023-03-05T06:38:52.771Z,27.43
2023-03-05T06:39:54.008Z,29.77
2023-03-05T06:40:55.839Z,30.21
2023-03-05T06:41:57.621Z,27.05
2023-03-05T06:42:59.488Z,29.00
2023-03-05T06:44:01.293Z,26.76
2023-03-05T06:45:03.107Z,28.69
2023-03-05T06:46:04.914Z,27.99
2023-03-05T06:47:06.728Z,28.64
2023-03-05T06:48:08.577Z,26.81
2023-03-05T06:49:10.411Z,27.76
2023-03-05T06:50:13.104Z,24.34
2023-03-05T06:51:14.918Z,23.85
2023-03-05T06:52:16.746Z,26.20
2023-03-05T06:53:18.615Z,29.27
2023-03-05T06:54:20.410Z,25.87
2023-03-05T06:55:22.214Z,26.83
2023-03-05T06:56:24.108Z,23.87
2023-03-05T06:57:25.899Z,22.35
2023-03-05T06:58:27.864Z,20.91
2023-03-05T06:59:29.678Z,20.10
2023-03-05T07:00:31.658Z,19.19
2023-03-05T07:01:33.473Z,18.37
2023-03-05T07:02:35.286Z,19.33
2023-03-05T07:03:36.970Z,20.69
2023-03-05T07:04:38.762Z,16.71
2023-03-05T07:05:40.603Z,17.83
2023-03-05T07:06:42.543Z,21.56
2023-03-05T07:07:44.347Z,17.90
2023-03-05T07:08:46.253Z,18.15
2023-03-05T07:09:48.047Z,19.51
2023-03-05T07:10:49.868Z,19.78
2023-03-05T07:11:51.698Z,15.69
2023-03-05T07:12:53.492Z,15.19
2023-03-05T07:13:55.351Z,13.96
2023-03-05T07:14:57.172Z,16.50
2023-03-05T07:15:59.036Z,15.93
2023-03-05T07:17:00.867Z,17.49
2023-03-05T07:18:02.663Z,16.90
2023-03-05T07:19:04.527Z,15.67
2023-03-05T07:20:06.537Z,15.47
2023-03-05T07:21:08.364Z,17.46
2023-03-05T07:22:10.173Z,16.89
2023-03-05T07:23:11.987Z,16.67
2023-03-05T07:24:13.859Z,16.91
2023-03-05T07:25:15.645Z,16.56
2023-03-05T07:26:17.559Z,13.75
2023-03-05T07:27:19.367Z,13.75
2023-03-05T07:28:21.167Z,13.64
2023-03-05T07:29:23.016Z,12.93
2023-03-05T07:30:24.817Z,13.92
2023-03-05T07:31:26.699Z,15.75
2023-03-05T07:32:28.558Z,15.81
2023-03-05T07:33:30.342Z,15.25
2023-03-05T07:34:32.189Z,13.83
2023-03-05T07:35:34.007Z,15.48
2023-03-05T07:36:35.797Z,15.25
2023-03-05T07:37:37.587Z,15.37
2023-03-05T07:38:39.390Z,18.97
2023-03-05T07:39:41.233Z,15.80
2023-03-05T07:40:43.048Z,23.63
2023-03-05T07:41:44.862Z,19.81
2023-03-05T07:42:46.778Z,15.91
2023-03-05T07:43:48.544Z,14.29
2023-03-05T07:44:50.400Z,16.65
2023-03-05T07:45:52.372Z,16.07
2023-03-05T07:46:57.200Z,15.15
2023-03-05T07:47:59.056Z,12.67
2023-03-05T07:49:00.854Z,14.67
2023-03-05T07:50:02.707Z,13.89
2023-03-05T07:51:04.509Z,13.76
2023-03-05T07:52:06.326Z,12.39
2023-03-05T07:53:08.116Z,14.41
2023-03-05T07:54:09.936Z,19.99
2023-03-05T07:55:11.792Z,14.79
2023-03-05T07:56:14.015Z,19.71
2023-03-05T07:57:15.798Z,17.89
2023-03-05T07:58:17.614Z,24.76
2023-03-05T07:59:19.418Z,24.64
2023-03-05T08:00:21.287Z,24.08
2023-03-05T08:01:23.128Z,29.31
2023-03-05T08:02:24.963Z,24.91
2023-03-05T08:03:29.467Z,20.29
2023-03-05T08:04:31.344Z,15.21
2023-03-05T08:05:33.204Z,16.37
2023-03-05T08:06:34.990Z,16.67
2023-03-05T08:07:36.783Z,12.94
2023-03-05T08:08:38.600Z,13.25
2023-03-05T08:09:40.391Z,12.64
2023-03-05T08:10:42.256Z,12.89
2023-03-05T08:11:44.091Z,14.97
2023-03-05T08:12:45.876Z,19.24
2023-03-05T08:13:47.692Z,15.79
2023-03-05T08:14:49.491Z,15.44
2023-03-05T08:15:51.545Z,14.49
2023-03-05T08:16:53.460Z,13.23
2023-03-05T08:17:55.254Z,14.80
2023-03-05T08:18:56.999Z,15.91
2023-03-05T08:19:58.782Z,14.10
2023-03-05T08:21:00.643Z,15.15
2023-03-05T08:22:02.433Z,15.57
2023-03-05T08:23:04.255Z,15.61
2023-03-05T08:24:06.042Z,14.76
2023-03-05T08:25:07.878Z,15.21
2023-03-05T08:26:09.828Z,15.95
2023-03-05T08:27:11.730Z,17.01
2023-03-05T08:28:13.550Z,16.17
2023-03-05T08:29:15.341Z,18.05
2023-03-05T08:30:17.137Z,19.31
2023-03-05T08:31:19.065Z,15.82
2023-03-05T08:32:20.944Z,16.50
2023-03-05T08:33:22.708Z,17.11
2023-03-05T08:34:24.524Z,13.18
2023-03-05T08:35:26.371Z,13.25
2023-03-05T08:36:28.201Z,13.65
2023-03-05T08:37:30.064Z,14.53
2023-03-05T08:38:31.855Z,14.17
2023-03-05T08:39:33.663Z,16.03
2023-03-05T08:40:35.460Z,13.81
2023-03-05T08:41:37.320Z,15.19
2023-03-05T08:42:39.120Z,14.81
2023-03-05T08:43:40.918Z,13.17
2023-03-05T08:44:42.716Z,12.53
2023-03-05T08:45:44.549Z,14.96
2023-03-05T08:46:46.397Z,16.69
2023-03-05T08:47:48.188Z,14.60
2023-03-05T08:48:50.011Z,13.13
2023-03-05T08:49:51.802Z,12.08
2023-03-05T08:50:53.622Z,14.19
2023-03-05T08:51:56.490Z,13.16
2023-03-05T08:52:58.317Z,14.90
2023-03-05T08:54:00.138Z,13.30
2023-03-05T08:55:01.933Z,13.74
2023-03-05T08:56:03.765Z,11.17
2023-03-05T08:57:05.599Z,12.49
2023-03-05T08:58:07.413Z,14.72
2023-03-05T08:59:09.204Z,14.85
2023-03-05T09:00:11.013Z,13.47
2023-03-05T09:01:12.838Z,14.83
2023-03-05T09:02:14.702Z,14.44
2023-03-05T09:03:16.595Z,13.99
2023-03-05T09:04:18.427Z,13.57
2023-03-05T09:05:20.227Z,15.43
2023-03-05T09:06:22.087Z,16.61
2023-03-05T09:07:23.945Z,15.22
2023-03-05T09:08:25.799Z,15.39
2023-03-05T09:09:27.604Z,13.94
2023-03-05T09:10:29.398Z,11.61
2023-03-05T09:11:31.209Z,12.75
2023-03-05T09:12:33.057Z,10.47
2023-03-05T09:13:34.924Z,12.79
2023-03-05T09:14:36.676Z,12.95
2023-03-05T09:15:38.494Z,12.30
2023-03-05T09:16:40.597Z,16.05
2023-03-05T09:17:42.578Z,16.41
2023-03-05T09:18:44.400Z,13.99
2023-03-05T09:19:46.217Z,13.51
2023-03-05T09:20:48.231Z,11.24
2023-03-05T09:21:50.041Z,10.82
2023-03-05T09:22:51.878Z,11.42
2023-03-05T09:23:53.677Z,11.59
2023-03-05T09:24:55.497Z,12.50
2023-03-05T09:25:57.327Z,9.09
2023-03-05T09:26:59.127Z,10.66
2023-03-05T09:28:01.076Z,9.73
2023-03-05T09:29:02.898Z,8.92
2023-03-05T09:30:04.802Z,9.34
2023-03-05T09:31:06.595Z,9.43
2023-03-05T09:32:08.471Z,10.76
2023-03-05T09:33:10.346Z,9.24
2023-03-05T09:34:12.070Z,9.87
2023-03-05T09:35:13.880Z,9.86
2023-03-05T09:36:15.669Z,10.91
2023-03-05T09:37:17.474Z,9.77
2023-03-05T09:38:19.365Z,15.35
2023-03-05T09:39:21.145Z,15.23
2023-03-05T09:40:22.964Z,11.38
2023-03-05T09:41:24.876Z,12.91
2023-03-05T09:42:26.682Z,13.22
2023-03-05T09:43:28.550Z,10.24
2023-03-05T09:44:30.350Z,9.76
2023-03-05T09:45:32.170Z,11.49
2023-03-05T09:46:33.972Z,9.44
2023-03-05T09:47:35.829Z,10.28
2023-03-05T09:48:40.261Z,14.08
2023-03-05T09:49:42.081Z,10.99
2023-03-05T09:50:43.902Z,9.96
2023-03-05T09:51:45.689Z,11.79
2023-03-05T09:52:47.491Z,11.98
2023-03-05T09:53:49.344Z,13.07
2023-03-05T09:54:51.164Z,12.38
2023-03-05T09:55:52.981Z,12.88
2023-03-05T09:56:54.770Z,11.53
2023-03-05T09:57:56.709Z,13.47
2023-03-05T09:58:58.574Z,10.99
2023-03-05T10:00:00.374Z,11.08
2023-03-05T10:01:02.076Z,10.33
2023-03-05T10:02:03.879Z,13.12
2023-03-05T10:03:05.898Z,14.74
2023-03-05T10:04:07.805Z,13.21
2023-03-05T10:05:09.588Z,11.39
2023-03-05T10:06:11.486Z,13.31
2023-03-05T10:07:13.313Z,13.58
2023-03-05T10:08:15.099Z,13.84
2023-03-05T10:09:16.941Z,16.35
2023-03-05T10:10:18.788Z,13.39
2023-03-05T10:11:20.571Z,11.95
2023-03-05T10:12:22.367Z,16.29
2023-03-05T10:13:24.175Z,15.97
2023-03-05T10:14:26.036Z,14.04
2023-03-05T10:15:27.846Z,13.29
2023-03-05T10:16:29.732Z,15.01
2023-03-05T10:17:31.590Z,15.54
2023-03-05T10:18:33.379Z,16.19
2023-03-05T10:19:35.228Z,14.63
2023-03-05T10:20:37.031Z,13.54
2023-03-05T10:21:40.273Z,16.18
2023-03-05T10:22:42.180Z,17.89
2023-03-05T10:23:43.895Z,17.87
2023-03-05T10:24:45.774Z,17.82
2023-03-05T10:25:47.584Z,20.39
2023-03-05T10:26:49.444Z,20.60
2023-03-05T10:27:53.805Z,18.38
2023-03-05T10:28:54.926Z,18.42
2023-03-05T10:29:56.793Z,19.32
2023-03-05T10:30:58.589Z,17.79
2023-03-05T10:32:00.541Z,19.26
2023-03-05T10:33:02.350Z,21.31
2023-03-05T10:34:04.141Z,18.08
2023-03-05T10:35:06.072Z,18.80
2023-03-05T10:36:07.966Z,17.89
2023-03-05T10:37:09.782Z,18.62
2023-03-05T10:38:11.574Z,17.81
2023-03-05T10:39:13.381Z,16.11
2023-03-05T10:40:15.230Z,18.68
2023-03-05T10:41:17.032Z,18.23
2023-03-05T10:42:18.881Z,14.84
2023-03-05T10:43:20.711Z,16.92
2023-03-05T10:44:22.472Z,19.93
2023-03-05T10:45:24.344Z,17.97
2023-03-05T10:46:26.140Z,15.86
2023-03-05T10:47:27.949Z,15.84
2023-03-05T10:48:29.758Z,15.39
2023-03-05T10:49:31.559Z,16.11
2023-03-05T10:50:33.409Z,15.81
2023-03-05T10:51:35.243Z,13.67
2023-03-05T10:52:37.030Z,13.07
2023-03-05T10:53:38.823Z,12.83
2023-03-05T10:54:40.640Z,13.30
2023-03-05T10:55:42.495Z,14.04
2023-03-05T10:56:44.296Z,14.08
2023-03-05T10:57:46.103Z,13.21
2023-03-05T10:58:47.895Z,14.47
2023-03-05T10:59:49.710Z,12.03
2023-03-05T11:00:51.570Z,12.30
2023-03-05T11:01:53.367Z,12.27
2023-03-05T11:02:55.285Z,11.99
2023-03-05T11:03:57.162Z,12.26
2023-03-05T11:04:58.970Z,11.32
2023-03-05T11:06:00.825Z,15.20
2023-03-05T11:07:02.625Z,13.45
2023-03-05T11:08:04.428Z,15.22
2023-03-05T11:09:06.254Z,13.44
2023-03-05T11:10:08.058Z,13.43
2023-03-05T11:11:09.952Z,16.25
2023-03-05T11:12:11.830Z,16.39
2023-03-05T11:13:13.666Z,13.71
2023-03-05T11:14:15.483Z,15.06
2023-03-05T11:15:17.268Z,11.95
2023-03-05T11:16:20.961Z,15.49
2023-03-05T11:17:22.870Z,13.65
2023-03-05T11:18:24.685Z,12.68
2023-03-05T11:19:26.501Z,14.89
2023-03-05T11:20:28.293Z,15.99
2023-03-05T11:21:30.134Z,15.60
2023-03-05T11:22:31.949Z,20.65
2023-03-05T11:23:33.754Z,18.46
2023-03-05T11:24:35.548Z,21.57
2023-03-05T11:25:37.362Z,15.31
2023-03-05T11:26:39.201Z,15.39
2023-03-05T11:27:41.012Z,12.61
2023-03-05T11:28:42.820Z,14.31
2023-03-05T11:29:44.618Z,17.10
2023-03-05T11:30:46.442Z,14.92
2023-03-05T11:31:48.316Z,14.09
2023-03-05T11:32:50.128Z,17.48
2023-03-05T11:33:51.940Z,15.74
2023-03-05T11:34:53.750Z,13.86
2023-03-05T11:35:55.560Z,18.60
2023-03-05T11:36:57.444Z,19.04
2023-03-05T11:37:59.215Z,17.12
2023-03-05T11:39:01.037Z,14.13
2023-03-05T11:40:02.874Z,15.39
2023-03-05T11:41:04.700Z,13.59
2023-03-05T11:42:06.568Z,12.33
2023-03-05T11:43:08.353Z,13.89
2023-03-05T11:44:11.217Z,11.73
2023-03-05T11:45:13.791Z,11.49
2023-03-05T11:46:16.102Z,11.09
2023-03-05T11:47:17.957Z,9.18
2023-03-05T11:48:19.788Z,11.65
2023-03-05T11:49:21.567Z,11.78
2023-03-05T11:50:23.384Z,9.27
2023-03-05T11:51:25.181Z,11.25
2023-03-05T11:52:27.069Z,12.37
2023-03-05T11:53:28.883Z,13.49
2023-03-05T11:54:30.683Z,13.75
2023-03-05T11:55:32.481Z,12.61
2023-03-05T11:56:34.301Z,12.81
2023-03-05T11:57:36.161Z,11.37
2023-03-05T11:58:37.967Z,13.25
2023-03-05T11:59:39.771Z,12.19
2023-03-05T12:00:41.562Z,13.54
2023-03-05T12:01:43.373Z,10.21
2023-03-05T12:02:45.268Z,10.41
2023-03-05T12:03:47.206Z,9.49
2023-03-05T12:04:49.071Z,10.21
2023-03-05T12:05:50.898Z,9.95
2023-03-05T12:06:52.681Z,9.38
2023-03-05T12:07:54.532Z,7.84
2023-03-05T12:08:56.334Z,10.02
2023-03-05T12:09:58.156Z,10.77
2023-03-05T12:10:59.976Z,10.50
2023-03-05T12:12:01.782Z,8.89
2023-03-05T12:13:03.638Z,9.11
2023-03-05T12:14:05.439Z,11.13
2023-03-05T12:15:07.263Z,8.24
2023-03-05T12:16:10.417Z,10.43
2023-03-05T12:17:12.211Z,8.48
2023-03-05T12:18:14.073Z,8.95
2023-03-05T12:19:18.336Z,9.54
2023-03-05T12:20:19.671Z,12.06
2023-03-05T12:21:21.514Z,8.95
2023-03-05T12:22:23.336Z,13.99
2023-03-05T12:23:25.188Z,11.27
2023-03-05T12:24:28.505Z,10.06
2023-03-05T12:25:30.517Z,8.88
2023-03-05T12:26:32.413Z,9.57
2023-03-05T12:27:34.216Z,11.53
2023-03-05T12:28:36.084Z,11.33
2023-03-05T12:29:37.923Z,9.10
2023-03-05T12:30:39.724Z,8.30
2023-03-05T12:31:41.683Z,8.50
2023-03-05T12:32:43.566Z,6.71
2023-03-05T12:33:45.483Z,5.37
2023-03-05T12:34:47.297Z,8.67
2023-03-05T12:35:49.609Z,7.09
2023-03-05T12:36:51.709Z,9.01
2023-03-05T12:37:53.543Z,5.97
2023-03-05T12:38:55.497Z,7.16
2023-03-05T12:39:57.302Z,6.98
2023-03-05T12:40:59.116Z,7.98
2023-03-05T12:42:00.930Z,8.09
2023-03-05T12:43:02.746Z,6.05
2023-03-05T12:44:04.638Z,5.51
2023-03-05T12:45:06.440Z,5.46
2023-03-05T12:46:08.364Z,5.74
2023-03-05T12:47:10.188Z,7.92
2023-03-05T12:48:12.081Z,5.84
2023-03-05T12:49:13.956Z,7.66
2023-03-05T12:50:15.866Z,5.58
2023-03-05T12:51:17.685Z,5.30
2023-03-05T12:52:19.475Z,7.74
2023-03-05T12:53:21.315Z,6.73
2023-03-05T12:54:23.178Z,5.91
2023-03-05T12:55:24.989Z,7.55
2023-03-05T12:56:26.787Z,6.89
2023-03-05T12:57:28.600Z,21.57
2023-03-05T12:58:30.399Z,11.97
2023-03-05T12:59:32.302Z,9.63
2023-03-05T13:00:34.255Z,10.20
2023-03-05T13:01:36.107Z,11.72
2023-03-05T13:02:37.929Z,9.01
2023-03-05T13:03:39.769Z,12.43
2023-03-05T13:04:41.592Z,20.19
2023-03-05T13:05:43.409Z,11.39
2023-03-05T13:06:45.309Z,14.60
2023-03-05T13:07:47.242Z,12.38
2023-03-05T13:08:49.101Z,12.04
2023-03-05T13:09:51.014Z,11.40
2023-03-05T13:10:52.836Z,12.96
2023-03-05T13:11:54.673Z,12.32
2023-03-05T13:12:56.439Z,16.22
2023-03-05T13:13:58.244Z,41.27
2023-03-05T13:15:00.122Z,30.26
2023-03-05T13:16:01.965Z,30.47
2023-03-05T13:17:03.823Z,14.82
2023-03-05T13:18:05.627Z,9.73